CheckWX is a tool to help pilots better visualize weather data.  It is not intended as a substitute for an official pre-flight weather briefing.

11:48:23 UTC

KOTM TAF
Ottumwa Regional Airport
Ottumwa, Iowa, USA
KOTM 260532Z 2606/2706 26005KT 2SM BR SCT005 FM260700 26005KT 1 1/2SM BR OVC003 FM260900 27005KT 1/2SM FG OVC002 FM261500 25004KT 3SM BR OVC004 FM261800 25005KT P6SM OVC003

Jan-26@
06:00 UTC

Jan-26 @ 06:00 UTC

Jan-26@
07:00 UTC

Jan-26 @ 07:00 UTC

KOTM 260532Z 2606/2706 26005KT 2SM BR SCT005

Expired

Wind
  • 260° at 5 KTS
Conditions
Mist
Cloud Levels
  • Scattered at 500' AGL

Jan-26@
07:00 UTC

Jan-26 @ 07:00 UTC

Jan-26@
09:00 UTC

Jan-26 @ 09:00 UTC

FM260700 26005KT 1 1/2SM BR OVC003

Expired

Wind
  • 260° at 5 KTS
Conditions
Mist
Cloud Levels
  • Overcast at 300' AGL

Jan-26@
09:00 UTC

Jan-26 @ 09:00 UTC

Jan-26@
15:00 UTC

Jan-26 @ 15:00 UTC

FM260900 27005KT 1/2SM FG OVC002

From

From Standard forecast or significant change

Wind
  • 270° at 5 KTS
Conditions
Fog
Cloud Levels
  • Overcast at 200' AGL

Jan-26@
15:00 UTC

Jan-26 @ 15:00 UTC

Jan-26@
18:00 UTC

Jan-26 @ 18:00 UTC

FM261500 25004KT 3SM BR OVC004

From

From Standard forecast or significant change

Wind
  • 250° at 4 KTS
Conditions
Mist
Cloud Levels
  • Overcast at 400' AGL

Jan-26@
18:00 UTC

Jan-26 @ 18:00 UTC

Jan-27@
06:00 UTC

Jan-27 @ 06:00 UTC

FM261800 25005KT P6SM OVC003

From

From Standard forecast or significant change

Wind
  • 250° at 5 KTS
Cloud Levels
  • Overcast at 300' AGL